Forest Oaks, North Carolina
Current Conditions -  °F | °C
As of 12:02 PM on Thursday 27 Nov 2014 (Local Time) from KGSO Reporting Station
Overcast Overcast  
Wind Chill: 39°   Ceiling: 1100
Heat Index: 45°   Visibility: 10mi
Dew Point: 37°   Wind: 12mph
Humidity: 76%   Direction: 320°NW
Pressure: 30.07"   Gusts: NA
Location:  36°N, 79.7628°W
Report Text: KGSO 271702Z 32010KT 10SM BKN011 BKN070 OVC250 07/03 A3007 RMK AO2
Loading
Personal Weather Stations






























Interactive Weather Map New forecast layout! Learn more

10-Day Weather Forecast

Advertisements
Track Severe Weather on mobile